Time;durP1;ratioP1;P1;durP2;ratioP2;P2;SDS_P1;SDS_P2;PMS_P1;PMS_P2;Temp;Humidity;BMP_temperature;BMP_pressure;BME280_temperature;BME280_humidity;BME280_pressure;Samples;Min_cycle;Max_cycle;Signal;HPM_P1;HPM_P2
2022/10/09 00:01:27;;;;;;;13.65;5.88;;;9.20;99.90;;;;;;5006311;28;20049;-74
2022/10/09 00:03:55;;;;;;;9.82;4.70;;;9.20;99.90;;;;;;5004062;28;20553;-73
2022/10/09 00:06:29;;;;;;;11.85;5.20;;;9.20;99.90;;;;;;5007284;28;20048;-73
2022/10/09 00:08:55;;;;;;;10.18;5.38;;;9.20;99.90;;;;;;5021045;28;20052;-73
2022/10/09 00:11:23;;;;;;;12.40;4.90;;;9.20;99.90;;;;;;5017586;28;20061;-73
2022/10/09 00:13:49;;;;;;;15.07;5.32;;;9.20;99.90;;;;;;5026064;28;20049;-72
2022/10/09 00:16:16;;;;;;;12.45;4.95;;;9.30;99.90;;;;;;5004173;28;20044;-72
2022/10/09 00:18:42;;;;;;;12.32;5.03;;;9.20;99.90;;;;;;5021230;28;20433;-73
2022/10/09 00:21:24;;;;;;;10.10;5.63;;;9.20;99.90;;;;;;5024303;28;20076;-73
2022/10/09 00:23:51;;;;;;;16.92;5.28;;;9.20;99.90;;;;;;5005700;28;20053;-72
2022/10/09 00:26:17;;;;;;;12.32;5.57;;;9.10;99.90;;;;;;5008358;28;20061;-73
2022/10/09 00:28:43;;;;;;;11.95;4.95;;;9.10;99.90;;;;;;5017706;28;20168;-73
2022/10/09 00:31:10;;;;;;;12.55;5.28;;;9.10;99.90;;;;;;5017200;28;20184;-72
2022/10/09 00:33:36;;;;;;;13.30;5.82;;;9.00;99.90;;;;;;5023518;28;20047;-73
2022/10/09 00:36:27;;;;;;;9.65;5.78;;;9.00;99.90;;;;;;5023917;28;20092;-73
2022/10/09 00:38:53;;;;;;;10.23;5.10;;;9.00;99.90;;;;;;5003389;28;20056;-73
2022/10/09 00:41:22;;;;;;;12.18;4.72;;;9.00;99.90;;;;;;5022898;28;20045;-73
2022/10/09 00:43:57;;;;;;;10.70;5.10;;;8.90;99.90;;;;;;5023281;28;20033;-73
2022/10/09 00:46:35;;;;;;;11.15;5.03;;;8.90;99.90;;;;;;4999525;28;20132;-73
2022/10/09 00:49:27;;;;;;;11.82;5.07;;;8.90;99.90;;;;;;5004913;28;20057;-73
2022/10/09 00:51:56;;;;;;;11.93;5.07;;;8.90;99.90;;;;;;5019720;28;20136;-74
2022/10/09 00:54:26;;;;;;;11.55;5.38;;;8.80;99.90;;;;;;5024144;28;20123;-73
2022/10/09 00:56:53;;;;;;;10.63;5.65;;;8.80;99.90;;;;;;5021533;28;20049;-73
2022/10/09 00:59:19;;;;;;;11.00;6.15;;;8.80;99.90;;;;;;5004799;28;20075;-74
2022/10/09 01:01:44;;;;;;;9.63;5.10;;;8.80;99.90;;;;;;5019750;28;20484;-73
2022/10/09 01:04:10;;;;;;;11.32;5.47;;;8.70;99.90;;;;;;5022053;28;20475;-72
2022/10/09 01:07:09;;;;;;;13.80;6.10;;;8.70;99.90;;;;;;5024596;28;20037;-73
2022/10/09 01:09:42;;;;;;;13.35;5.60;;;8.70;99.90;;;;;;4984329;28;20065;-74
2022/10/09 01:12:17;;;;;;;11.00;5.20;;;8.70;99.90;;;;;;5021058;28;20046;-73
2022/10/09 01:14:52;;;;;;;12.57;5.55;;;8.70;99.90;;;;;;5021009;28;20492;-72
2022/10/09 01:17:29;;;;;;;9.40;5.40;;;8.60;99.90;;;;;;5000782;28;20129;-73
2022/10/09 01:20:13;;;;;;;10.10;5.25;;;8.60;99.90;;;;;;5020552;28;20890;-73
2022/10/09 01:23:12;;;;;;;14.13;6.65;;;8.50;99.90;;;;;;5021302;28;20044;-73
2022/10/09 01:25:48;;;;;;;14.00;5.80;;;8.50;99.90;;;;;;5002532;28;20120;-73
2022/10/09 01:28:16;;;;;;;11.45;5.18;;;8.50;99.90;;;;;;5025037;28;20049;-72
2022/10/09 01:30:42;;;;;;;10.15;6.22;;;8.50;99.90;;;;;;5027578;28;20459;-73
2022/10/09 01:33:09;;;;;;;12.95;6.20;;;8.40;99.90;;;;;;5021962;28;20044;-73
2022/10/09 01:35:36;;;;;;;11.68;6.28;;;8.50;99.90;;;;;;5020453;28;20045;-74
2022/10/09 01:38:03;;;;;;;14.10;6.38;;;8.50;99.90;;;;;;5018977;28;20118;-73
2022/10/09 01:40:30;;;;;;;9.98;6.18;;;8.60;99.90;;;;;;5020611;28;20045;-73
2022/10/09 01:42:57;;;;;;;10.57;5.73;;;8.50;99.90;;;;;;5021318;28;20065;-72
2022/10/09 01:45:22;;;;;;;15.03;6.47;;;8.50;99.90;;;;;;5019692;28;20306;-72
2022/10/09 01:47:48;;;;;;;13.05;6.30;;;8.50;99.90;;;;;;5006882;28;20049;-73
2022/10/09 01:50:32;;;;;;;11.02;6.47;;;8.50;99.90;;;;;;4999661;28;20420;-73
2022/10/09 01:53:05;;;;;;;12.45;6.40;;;8.50;99.90;;;;;;5007420;28;20139;-73
2022/10/09 01:56:15;;;;;;;14.15;6.20;;;8.50;99.90;;;;;;5002092;28;20041;-73
2022/10/09 01:58:53;;;;;;;12.68;6.75;;;8.50;99.90;;;;;;4989404;28;20072;-73
2022/10/09 02:01:30;;;;;;;11.07;6.07;;;8.50;99.90;;;;;;5016880;28;20045;-73
2022/10/09 02:03:58;;;;;;;13.52;6.55;;;8.40;99.90;;;;;;5022865;28;20120;-72
2022/10/09 02:06:27;;;;;;;12.05;6.72;;;8.40;99.90;;;;;;5018344;28;20045;-73
2022/10/09 02:08:54;;;;;;;10.38;5.85;;;8.40;99.90;;;;;;5022796;28;20030;-73
2022/10/09 02:11:20;;;;;;;12.00;6.40;;;8.40;99.90;;;;;;5019906;28;20045;-73
2022/10/09 02:13:49;;;;;;;13.57;6.77;;;8.40;99.90;;;;;;5021756;28;20395;-73
2022/10/09 02:16:28;;;;;;;9.25;5.70;;;8.30;99.90;;;;;;5023050;28;20069;-72
2022/10/09 02:19:17;;;;;;;11.68;6.20;;;8.30;99.90;;;;;;5019555;28;20049;-73
2022/10/09 02:21:49;;;;;;;10.85;6.20;;;8.30;99.90;;;;;;5024571;28;20061;-73
2022/10/09 02:24:19;;;;;;;10.15;6.30;;;8.30;99.90;;;;;;5022640;28;20049;-73
2022/10/09 02:26:45;;;;;;;13.82;7.13;;;8.30;99.90;;;;;;5008313;28;20121;-73
2022/10/09 02:29:12;;;;;;;10.93;5.93;;;8.30;99.90;;;;;;5028263;28;20582;-73
2022/10/09 02:31:40;;;;;;;12.68;6.40;;;8.20;99.90;;;;;;5024145;28;20080;-73
2022/10/09 02:34:09;;;;;;;11.85;7.03;;;8.20;99.90;;;;;;5008674;28;20735;-73
2022/10/09 02:36:36;;;;;;;10.85;6.35;;;8.20;99.90;;;;;;5025556;28;20046;-73
2022/10/09 02:39:04;;;;;;;9.73;6.20;;;8.20;99.90;;;;;;5006125;28;20060;-72
2022/10/09 02:41:30;;;;;;;14.27;6.78;;;8.20;99.90;;;;;;5025705;28;20083;-73
2022/10/09 02:43:56;;;;;;;12.07;6.72;;;8.20;99.90;;;;;;5010229;28;20057;-73
2022/10/09 02:46:22;;;;;;;13.10;6.70;;;8.10;99.90;;;;;;5026072;28;20501;-73
2022/10/09 02:48:48;;;;;;;13.90;6.65;;;8.20;99.90;;;;;;5025572;28;20057;-73
2022/10/09 02:51:13;;;;;;;14.82;7.30;;;8.20;99.90;;;;;;5009146;28;20041;-73
2022/10/09 02:53:39;;;;;;;11.13;7.07;;;8.10;99.90;;;;;;5006546;28;20058;-73
2022/10/09 02:56:05;;;;;;;14.93;7.40;;;8.20;99.90;;;;;;5025157;28;20460;-73
2022/10/09 02:58:32;;;;;;;15.10;6.85;;;8.10;99.90;;;;;;5023820;28;20044;-73
2022/10/09 03:00:58;;;;;;;13.32;7.00;;;8.20;99.90;;;;;;5004490;28;20523;-73
2022/10/09 03:03:24;;;;;;;9.60;6.95;;;8.10;99.90;;;;;;5022410;28;20120;-73
2022/10/09 03:06:12;;;;;;;10.95;6.93;;;8.10;99.90;;;;;;5006848;28;20140;-73
2022/10/09 03:08:41;;;;;;;13.30;6.90;;;8.20;99.90;;;;;;5023799;28;20052;-73
2022/10/09 03:11:07;;;;;;;11.10;7.05;;;8.10;99.90;;;;;;5009649;28;20045;-73
2022/10/09 03:13:33;;;;;;;14.07;7.57;;;8.00;99.90;;;;;;5022438;28;20084;-72
2022/10/09 03:16:04;;;;;;;12.23;6.93;;;8.10;99.90;;;;;;5004863;28;20096;-72
2022/10/09 03:18:30;;;;;;;11.90;7.03;;;8.10;99.90;;;;;;5024336;28;20041;-71
2022/10/09 03:20:56;;;;;;;12.93;7.05;;;8.00;99.90;;;;;;5027040;28;20049;-71
2022/10/09 03:23:22;;;;;;;12.30;6.75;;;8.00;99.90;;;;;;5026770;28;20048;-71
2022/10/09 03:25:57;;;;;;;9.57;6.45;;;8.00;99.90;;;;;;5027075;28;20045;-71
2022/10/09 03:28:24;;;;;;;11.52;7.03;;;7.90;99.90;;;;;;5024796;28;20042;-71
2022/10/09 03:30:49;;;;;;;11.75;6.88;;;7.80;99.90;;;;;;5022336;28;20052;-70
2022/10/09 03:33:15;;;;;;;8.32;5.68;;;7.80;99.90;;;;;;5025525;28;20045;-71
2022/10/09 03:35:41;;;;;;;10.82;7.53;;;7.70;99.90;;;;;;5023090;28;20092;-71
2022/10/09 03:38:07;;;;;;;9.48;5.78;;;7.70;99.90;;;;;;5025621;28;20520;-71
2022/10/09 03:40:32;;;;;;;7.45;5.53;;;7.70;99.90;;;;;;5027788;28;20053;-70
2022/10/09 03:42:58;;;;;;;9.05;6.03;;;7.60;99.90;;;;;;5020259;28;20045;-72
2022/10/09 03:45:25;;;;;;;7.25;5.30;;;7.70;99.90;;;;;;5029894;28;20053;-72
2022/10/09 03:47:51;;;;;;;7.55;5.47;;;7.60;99.90;;;;;;5024453;28;20033;-72
2022/10/09 03:50:16;;;;;;;5.88;4.47;;;7.60;99.90;;;;;;5003383;28;20053;-71
2022/10/09 03:52:42;;;;;;;5.93;4.07;;;7.60;99.90;;;;;;5003747;28;20428;-71
2022/10/09 03:55:08;;;;;;;6.93;4.18;;;7.50;99.90;;;;;;5023535;28;20061;-71
2022/10/09 03:57:34;;;;;;;8.20;4.47;;;7.50;99.90;;;;;;5026230;28;20026;-71
2022/10/09 04:00:00;;;;;;;6.13;4.07;;;7.40;99.90;;;;;;5006357;28;20671;-71
2022/10/09 04:02:26;;;;;;;8.52;5.20;;;7.40;99.90;;;;;;5006409;28;20307;-71
2022/10/09 04:04:51;;;;;;;7.13;4.38;;;7.40;99.90;;;;;;5026728;28;20057;-71
2022/10/09 04:07:17;;;;;;;7.07;4.57;;;7.40;99.90;;;;;;5024780;28;20030;-71
2022/10/09 04:09:42;;;;;;;9.18;5.88;;;7.40;99.90;;;;;;5022428;28;20045;-71
2022/10/09 04:12:08;;;;;;;8.32;4.70;;;7.30;99.90;;;;;;5007460;28;20068;-71
2022/10/09 04:14:34;;;;;;;8.77;5.47;;;7.30;99.90;;;;;;5019649;28;20064;-71
2022/10/09 04:16:59;;;;;;;6.40;5.18;;;7.30;99.90;;;;;;5020444;28;20037;-71
2022/10/09 04:19:25;;;;;;;7.72;5.53;;;7.30;99.90;;;;;;5024174;28;20092;-71
2022/10/09 04:21:50;;;;;;;8.63;5.57;;;7.30;99.90;;;;;;5008580;28;20045;-71
2022/10/09 04:24:16;;;;;;;6.82;5.30;;;7.30;99.90;;;;;;5025715;28;20515;-71
2022/10/09 04:26:42;;;;;;;9.63;5.68;;;7.30;99.90;;;;;;5022293;28;20132;-71
2022/10/09 04:29:07;;;;;;;7.60;4.95;;;7.20;99.90;;;;;;5024574;28;20033;-71
2022/10/09 04:31:33;;;;;;;8.15;5.32;;;7.20;99.90;;;;;;4999287;28;20049;-71
2022/10/09 04:33:58;;;;;;;8.95;6.38;;;7.10;99.90;;;;;;5022966;28;20052;-71
2022/10/09 04:36:24;;;;;;;9.35;6.07;;;7.10;99.90;;;;;;5003770;28;20046;-71
2022/10/09 04:38:51;;;;;;;8.45;5.50;;;7.10;99.90;;;;;;5006568;28;20071;-71
2022/10/09 04:41:17;;;;;;;10.43;6.38;;;7.10;99.90;;;;;;5025709;28;20045;-71
2022/10/09 04:43:43;;;;;;;11.25;7.18;;;7.10;99.90;;;;;;5024006;28;20029;-71
2022/10/09 04:46:11;;;;;;;10.60;6.90;;;7.10;99.90;;;;;;5020562;28;20048;-71
2022/10/09 04:48:42;;;;;;;10.35;6.35;;;7.20;99.90;;;;;;5020226;28;20052;-73
2022/10/09 04:51:08;;;;;;;9.25;5.97;;;7.20;99.90;;;;;;5019759;28;20049;-73
2022/10/09 04:53:35;;;;;;;9.00;6.30;;;7.20;99.90;;;;;;5002212;28;20064;-73
2022/10/09 04:56:03;;;;;;;10.45;6.50;;;7.20;99.90;;;;;;5017065;28;20455;-73
2022/10/09 04:58:31;;;;;;;11.38;6.80;;;7.20;99.90;;;;;;5017025;28;20128;-77
2022/10/09 05:00:57;;;;;;;11.95;6.57;;;7.20;99.90;;;;;;5003244;28;21257;-74
2022/10/09 05:03:23;;;;;;;9.10;6.75;;;7.20;99.90;;;;;;5008412;28;20042;-73
2022/10/09 05:05:48;;;;;;;9.63;6.68;;;7.20;99.90;;;;;;5009348;28;20077;-74
2022/10/09 05:08:14;;;;;;;8.95;6.75;;;7.20;99.90;;;;;;5022011;28;20053;-74
2022/10/09 05:10:40;;;;;;;10.35;7.88;;;7.20;99.90;;;;;;5025634;28;20048;-74
2022/10/09 05:13:05;;;;;;;9.07;7.00;;;7.20;99.90;;;;;;5024447;28;20045;-74
2022/10/09 05:15:34;;;;;;;12.80;7.22;;;7.20;99.90;;;;;;5007134;28;20057;-74
2022/10/09 05:18:00;;;;;;;11.88;7.00;;;7.20;99.90;;;;;;5016508;28;20049;-73
2022/10/09 05:20:26;;;;;;;9.32;6.70;;;7.20;99.90;;;;;;5018926;28;20049;-74
2022/10/09 05:22:51;;;;;;;10.23;6.60;;;7.20;99.90;;;;;;5018101;28;20059;-74
2022/10/09 05:25:17;;;;;;;9.18;6.60;;;7.10;99.90;;;;;;5013509;28;20049;-74
2022/10/09 05:27:43;;;;;;;9.68;6.80;;;7.20;99.90;;;;;;5005262;28;20053;-74
2022/10/09 05:30:09;;;;;;;11.52;7.00;;;7.10;99.90;;;;;;5024612;28;20040;-74
2022/10/09 05:32:34;;;;;;;9.82;6.70;;;7.20;99.90;;;;;;5005376;28;20080;-73
2022/10/09 05:35:00;;;;;;;10.52;6.35;;;7.10;99.90;;;;;;5008880;28;20452;-73
2022/10/09 05:37:26;;;;;;;11.68;7.07;;;7.10;99.90;;;;;;4994892;28;20037;-74
2022/10/09 05:39:52;;;;;;;7.90;6.22;;;7.10;99.90;;;;;;5010453;28;20045;-74
2022/10/09 05:42:17;;;;;;;9.70;7.55;;;7.10;99.90;;;;;;5015390;28;20044;-74
2022/10/09 05:44:43;;;;;;;9.63;7.07;;;7.10;99.90;;;;;;5022789;28;20120;-74
2022/10/09 05:47:08;;;;;;;7.68;6.60;;;7.10;99.90;;;;;;5024327;28;20045;-73
2022/10/09 05:49:34;;;;;;;8.98;6.40;;;7.10;99.90;;;;;;4996859;28;20046;-74
2022/10/09 05:52:00;;;;;;;8.02;6.28;;;7.00;99.90;;;;;;5016618;28;20091;-73
2022/10/09 05:54:26;;;;;;;11.82;7.30;;;7.00;99.90;;;;;;4990393;28;20480;-74
2022/10/09 05:56:51;;;;;;;10.07;6.80;;;7.00;99.90;;;;;;5023038;28;20125;-74
2022/10/09 05:59:18;;;;;;;8.27;6.60;;;7.00;99.90;;;;;;5019992;28;20829;-74
2022/10/09 06:01:49;;;;;;;11.65;8.68;;;6.90;99.90;;;;;;5001045;28;20377;-73
2022/10/09 06:04:18;;;;;;;11.55;8.15;;;6.90;99.90;;;;;;5025231;28;20046;-74
2022/10/09 06:06:46;;;;;;;9.75;8.73;;;6.90;99.90;;;;;;5005449;28;20059;-73
2022/10/09 06:09:12;;;;;;;14.55;13.02;;;6.80;99.90;;;;;;5025599;28;20041;-74
2022/10/09 06:11:39;;;;;;;16.73;13.45;;;6.90;99.90;;;;;;5017206;28;20588;-74
2022/10/09 06:14:08;;;;;;;12.38;10.55;;;6.90;99.90;;;;;;5006372;28;20511;-73
2022/10/09 06:16:36;;;;;;;11.18;9.88;;;7.00;99.90;;;;;;5022491;28;20081;-73
2022/10/09 06:19:02;;;;;;;11.50;9.07;;;7.00;99.90;;;;;;5022316;28;20551;-73
2022/10/09 06:21:28;;;;;;;13.02;9.52;;;7.00;99.90;;;;;;5023757;28;20034;-73
2022/10/09 06:23:57;;;;;;;13.50;10.55;;;7.00;99.90;;;;;;5023657;28;20025;-73
2022/10/09 06:26:24;;;;;;;13.57;11.23;;;7.00;99.90;;;;;;5023780;28;20095;-73
2022/10/09 06:28:50;;;;;;;;;;;7.10;99.90;;;;;;5019051;28;20042;-74
2022/10/09 06:31:18;;;;;;;13.90;10.38;;;7.10;99.90;;;;;;4999724;28;20300;-74
2022/10/09 06:33:45;;;;;;;15.32;10.70;;;7.10;99.90;;;;;;5002795;28;20045;-75
2022/10/09 06:36:14;;;;;;;12.55;11.00;;;7.10;99.90;;;;;;5001367;28;20497;-79
2022/10/09 06:38:41;;;;;;;12.88;10.20;;;7.10;99.90;;;;;;5013029;28;20101;-79
2022/10/09 06:41:12;;;;;;;15.30;10.75;;;7.20;99.90;;;;;;5004768;28;20065;-81
2022/10/09 06:43:38;;;;;;;14.38;11.02;;;7.20;99.90;;;;;;5018881;28;20629;-78
2022/10/09 06:46:07;;;;;;;14.20;11.37;;;7.30;99.90;;;;;;5021867;28;20404;-80
2022/10/09 06:48:33;;;;;;;17.88;11.52;;;7.40;99.90;;;;;;5020328;28;20073;-80
2022/10/09 06:51:04;;;;;;;15.60;12.77;;;7.40;99.90;;;;;;5023914;28;20048;-83
2022/10/09 06:53:32;;;;;;;15.27;12.05;;;7.50;99.90;;;;;;5003916;28;20452;-74
2022/10/09 06:55:58;;;;;;;17.00;12.05;;;7.50;99.90;;;;;;5022113;28;20558;-76
2022/10/09 06:58:24;;;;;;;15.68;10.98;;;7.60;99.90;;;;;;5008383;28;20053;-83
2022/10/09 07:01:00;;;;;;;14.88;11.88;;;7.60;99.90;;;;;;5021152;28;20041;-77
2022/10/09 07:03:25;;;;;;;15.73;12.25;;;7.60;99.90;;;;;;5028497;28;20069;-77
2022/10/09 07:05:53;;;;;;;18.40;12.35;;;7.70;99.90;;;;;;5009244;28;20641;-78
2022/10/09 07:08:19;;;;;;;16.33;12.10;;;7.80;99.90;;;;;;5009982;28;20448;-77
2022/10/09 07:10:45;;;;;;;19.38;13.85;;;7.80;99.90;;;;;;5028182;28;20042;-75
2022/10/09 07:13:10;;;;;;;16.60;13.60;;;7.90;99.90;;;;;;5028209;28;20042;-74
2022/10/09 07:15:43;;;;;;;19.23;13.13;;;8.00;99.90;;;;;;5028304;28;21586;-76
2022/10/09 07:18:08;;;;;;;19.73;13.18;;;8.00;99.90;;;;;;5031031;28;20041;-76
2022/10/09 07:20:35;;;;;;;17.35;12.95;;;8.10;99.90;;;;;;5027942;28;20061;-77
2022/10/09 07:23:00;;;;;;;18.97;14.60;;;8.10;99.90;;;;;;5025271;28;20049;-80
2022/10/09 07:25:26;;;;;;;16.80;13.38;;;8.20;99.90;;;;;;5026494;28;20034;-76
2022/10/09 07:27:55;;;;;;;19.35;14.30;;;8.30;99.90;;;;;;5024567;28;20048;-77
2022/10/09 07:30:21;;;;;;;21.98;13.50;;;8.40;99.90;;;;;;5025185;28;20403;-74
2022/10/09 07:32:50;;;;;;;17.65;13.50;;;8.40;99.90;;;;;;5026802;28;20500;-74
2022/10/09 07:35:16;;;;;;;17.48;14.45;;;8.50;99.90;;;;;;5009974;28;20072;-73
2022/10/09 07:37:41;;;;;;;17.73;13.75;;;8.60;99.90;;;;;;5009230;28;20042;-73
2022/10/09 07:40:08;;;;;;;22.13;15.10;;;8.60;99.90;;;;;;5028611;28;20400;-73
2022/10/09 07:42:33;;;;;;;21.90;14.70;;;8.70;99.90;;;;;;5026667;28;20044;-74
2022/10/09 07:44:59;;;;;;;17.00;14.00;;;8.70;99.90;;;;;;5027836;28;20128;-73
2022/10/09 07:47:24;;;;;;;17.05;13.43;;;8.70;99.90;;;;;;5026773;28;20041;-74
2022/10/09 07:49:50;;;;;;;20.02;15.10;;;8.80;99.90;;;;;;5025629;28;20508;-73
2022/10/09 07:52:15;;;;;;;17.42;13.93;;;8.80;99.90;;;;;;5029230;28;20043;-72
2022/10/09 07:54:41;;;;;;;18.10;13.70;;;8.90;99.90;;;;;;5026816;28;20037;-73
2022/10/09 07:57:07;;;;;;;18.92;13.75;;;9.00;99.90;;;;;;5029483;28;20382;-73
2022/10/09 07:59:32;;;;;;;20.02;15.00;;;9.00;99.90;;;;;;5028568;28;20120;-73
2022/10/09 08:01:58;;;;;;;17.98;13.57;;;9.10;99.90;;;;;;5026067;28;20824;-73
2022/10/09 08:04:23;;;;;;;16.63;13.48;;;9.10;99.90;;;;;;5027372;28;20038;-73
2022/10/09 08:06:49;;;;;;;21.10;13.90;;;9.10;99.90;;;;;;5025784;28;20116;-75
2022/10/09 08:09:16;;;;;;;18.40;13.20;;;9.20;99.90;;;;;;5024661;28;20053;-74
2022/10/09 08:11:43;;;;;;;21.50;14.52;;;9.30;99.90;;;;;;5025813;28;20077;-76
2022/10/09 08:14:11;;;;;;;18.38;13.25;;;9.40;99.90;;;;;;5024512;28;20041;-75
2022/10/09 08:16:37;;;;;;;19.23;13.95;;;9.30;99.90;;;;;;5028060;28;20045;-76
2022/10/09 08:19:03;;;;;;;15.50;12.77;;;9.40;99.90;;;;;;5007500;28;20071;-75
2022/10/09 08:21:29;;;;;;;19.13;13.95;;;9.50;99.90;;;;;;5029080;28;20041;-76
2022/10/09 08:23:56;;;;;;;19.58;12.00;;;9.50;99.90;;;;;;5024710;28;20103;-72
2022/10/09 08:26:24;;;;;;;17.08;12.35;;;9.60;99.90;;;;;;5007638;28;20052;-75
2022/10/09 08:28:58;;;;;;;17.45;13.00;;;9.60;99.90;;;;;;5026430;28;20043;-77
2022/10/09 08:31:26;;;;;;;16.35;12.15;;;9.80;99.90;;;;;;5007036;28;20055;-73
2022/10/09 08:33:52;;;;;;;;;;;9.80;99.90;;;;;;5025745;28;20084;-74
2022/10/09 08:36:19;;;;;;;18.35;12.88;;;9.80;99.90;;;;;;5007154;28;19972;-74
2022/10/09 08:38:45;;;;;;;19.73;12.23;;;9.90;99.90;;;;;;5026819;28;20963;-77
2022/10/09 08:41:11;;;;;;;21.60;13.02;;;9.90;99.90;;;;;;5026050;28;20694;-77
2022/10/09 08:43:44;;;;;;;16.95;12.52;;;10.00;99.90;;;;;;5021611;28;20049;-77
2022/10/09 08:46:24;;;;;;;17.95;11.88;;;10.00;99.90;;;;;;5025924;28;20381;-76
2022/10/09 08:48:52;;;;;;;20.15;12.38;;;10.20;99.90;;;;;;5025667;28;20049;-77
2022/10/09 08:51:26;;;;;;;18.13;11.52;;;10.20;99.90;;;;;;5014468;28;20045;-76
2022/10/09 08:54:00;;;;;;;15.10;11.75;;;10.30;99.90;;;;;;5006510;28;20037;-75
2022/10/09 08:56:27;;;;;;;17.55;11.60;;;10.40;99.90;;;;;;5008007;28;20492;-77
2022/10/09 08:58:53;;;;;;;13.50;10.98;;;10.40;99.90;;;;;;5006889;28;20073;-77
2022/10/09 09:01:56;;;;;;;14.95;10.57;;;10.50;99.90;;;;;;5007759;28;20054;-76
2022/10/09 09:04:40;;;;;;;15.77;10.38;;;10.60;99.90;;;;;;5008711;28;20068;-77
2022/10/09 09:07:19;;;;;;;15.95;10.25;;;10.70;99.90;;;;;;5005389;28;20050;-75
2022/10/09 09:09:57;;;;;;;18.77;11.02;;;10.70;99.90;;;;;;4995195;28;20050;-76
2022/10/09 09:12:49;;;;;;;15.45;10.20;;;10.80;99.90;;;;;;4996203;28;20046;-77
2022/10/09 09:15:33;;;;;;;15.15;9.57;;;10.90;99.90;;;;;;5005456;28;20045;-75
2022/10/09 09:18:08;;;;;;;15.05;8.80;;;10.90;99.90;;;;;;5002827;28;20499;-77
2022/10/09 09:20:52;;;;;;;15.73;9.15;;;11.00;99.90;;;;;;4994517;28;20046;-84
2022/10/09 09:23:26;;;;;;;14.43;8.88;;;11.10;99.90;;;;;;5004128;28;20116;-81
2022/10/09 09:25:59;;;;;;;13.55;8.55;;;11.20;99.90;;;;;;4996593;28;20528;-82
2022/10/09 09:28:29;;;;;;;17.13;8.60;;;11.20;99.90;;;;;;5005483;28;20084;-75
2022/10/09 09:31:05;;;;;;;15.93;8.95;;;11.30;99.90;;;;;;5005969;28;20803;-75
2022/10/09 09:33:30;;;;;;;16.17;8.63;;;11.30;99.90;;;;;;4998769;28;20215;-75
2022/10/09 09:36:13;;;;;;;15.15;8.05;;;11.40;99.90;;;;;;4987858;28;20648;-76
2022/10/09 09:38:38;;;;;;;16.05;8.68;;;11.50;99.90;;;;;;4994662;28;20030;-75
2022/10/09 09:41:04;;;;;;;15.23;9.18;;;11.60;99.90;;;;;;5006623;28;20042;-78
2022/10/09 09:43:30;;;;;;;17.73;7.90;;;11.60;99.90;;;;;;5005880;28;20040;-79
2022/10/09 09:45:58;;;;;;;15.57;8.40;;;11.70;99.90;;;;;;5003709;28;20046;-79
2022/10/09 09:48:42;;;;;;;15.75;7.60;;;11.80;99.90;;;;;;5008227;28;20042;-78
2022/10/09 09:51:17;;;;;;;13.80;7.80;;;11.90;99.90;;;;;;5023876;28;20077;-78
2022/10/09 09:53:47;;;;;;;12.90;7.38;;;11.90;99.90;;;;;;5023616;28;20045;-79
2022/10/09 09:56:13;;;;;;;14.35;6.78;;;12.00;99.90;;;;;;5025212;28;20407;-79
2022/10/09 09:58:52;;;;;;;17.15;7.40;;;12.10;99.90;;;;;;5014892;28;20037;-78
2022/10/09 10:01:26;;;;;;;16.65;7.20;;;12.20;99.90;;;;;;5022676;28;20136;-79
2022/10/09 10:03:54;;;;;;;12.98;6.70;;;12.20;99.90;;;;;;5012259;28;20046;-74
2022/10/09 10:06:34;;;;;;;14.90;6.57;;;12.30;99.90;;;;;;5022269;28;20736;-80
2022/10/09 10:09:04;;;;;;;14.52;6.80;;;12.40;99.90;;;;;;5019761;28;20088;-75
2022/10/09 10:11:31;;;;;;;16.63;6.90;;;12.50;99.90;;;;;;5008412;28;20503;-82
2022/10/09 10:14:07;;;;;;;15.40;6.53;;;12.50;99.90;;;;;;4998939;28;20060;-81
2022/10/09 10:16:36;;;;;;;14.75;6.35;;;12.60;99.90;;;;;;5019890;28;20038;-83
2022/10/09 10:19:03;;;;;;;13.88;6.70;;;12.70;99.90;;;;;;5018995;28;20137;-82
2022/10/09 10:21:40;;;;;;;14.90;6.70;;;12.70;99.90;;;;;;5018073;28;20120;-79
2022/10/09 10:24:12;;;;;;;14.07;6.40;;;12.80;99.90;;;;;;5022251;28;20041;-80
2022/10/09 10:27:04;;;;;;;12.43;6.20;;;12.80;99.90;;;;;;5005508;28;20037;-77
2022/10/09 10:29:36;;;;;;;11.60;5.95;;;12.90;99.90;;;;;;5011399;28;20049;-77
2022/10/09 10:32:14;;;;;;;12.60;6.28;;;12.90;99.90;;;;;;5018325;28;20488;-81
2022/10/09 10:34:46;;;;;;;13.18;6.10;;;13.00;99.90;;;;;;5025011;28;20049;-82
2022/10/09 10:37:12;;;;;;;15.00;6.22;;;13.00;99.90;;;;;;5025746;28;20120;-81
2022/10/09 10:40:06;;;;;;;14.82;6.82;;;13.10;99.90;;;;;;5028376;28;20129;-77
2022/10/09 10:43:02;;;;;;;14.07;6.20;;;13.20;99.90;;;;;;5024663;28;20067;-83
2022/10/09 10:45:46;;;;;;;13.88;6.13;;;13.30;99.90;;;;;;5005826;28;20122;-81
2022/10/09 10:48:22;;;;;;;9.63;4.95;;;13.30;99.90;;;;;;5017242;28;20045;-78
2022/10/09 10:51:24;;;;;;;11.65;5.10;;;13.40;99.90;;;;;;5025978;28;20045;-78
2022/10/09 10:54:18;;;;;;;11.07;5.07;;;13.50;99.90;;;;;;5005624;28;20052;-79
2022/10/09 10:56:46;;;;;;;10.45;4.65;;;13.50;99.90;;;;;;5030007;28;20075;-81
2022/10/09 10:59:36;;;;;;;12.68;5.45;;;13.60;99.90;;;;;;5028679;28;20109;-80
2022/10/09 11:02:37;;;;;;;12.05;3.67;;;13.60;99.90;;;;;;5010709;28;20053;-75
2022/10/09 11:05:14;;;;;;;8.20;2.90;;;13.70;99.90;;;;;;5026994;28;20136;-80
2022/10/09 11:08:01;;;;;;;9.50;3.33;;;13.80;99.90;;;;;;5025639;28;20041;-77
2022/10/09 11:10:33;;;;;;;;;;;13.80;99.90;;;;;;5030205;28;20047;-76
2022/10/09 11:13:09;;;;;;;11.10;3.70;;;13.90;99.90;;;;;;5031044;28;20268;-76
2022/10/09 11:15:52;;;;;;;7.55;2.85;;;14.00;99.90;;;;;;5030215;28;20099;-76
2022/10/09 11:18:49;;;;;;;10.93;3.53;;;14.00;99.90;;;;;;5029357;28;20806;-75
2022/10/09 11:21:29;;;;;;;9.23;3.03;;;14.10;99.90;;;;;;5019774;28;20428;-78
2022/10/09 11:24:25;;;;;;;9.55;2.75;;;14.10;99.90;;;;;;5024555;28;20081;-84
2022/10/09 11:27:20;;;;;;;7.68;2.90;;;14.10;99.90;;;;;;5022551;28;20061;-77
2022/10/09 11:29:57;;;;;;;10.07;3.50;;;14.20;99.90;;;;;;5029119;28;20038;-86
2022/10/09 11:32:37;;;;;;;10.23;3.58;;;14.20;99.90;;;;;;5028945;28;20072;-82
2022/10/09 11:35:11;;;;;;;7.45;3.10;;;14.20;99.90;;;;;;5022901;28;20060;-78
2022/10/09 11:37:40;;;;;;;11.80;3.50;;;14.20;99.90;;;;;;5010367;28;20099;-78
2022/10/09 11:40:19;;;;;;;8.35;3.30;;;14.30;99.90;;;;;;5025477;28;20053;-82
2022/10/09 11:42:53;;;;;;;9.50;3.35;;;14.40;99.90;;;;;;5011247;28;20041;-82
2022/10/09 11:45:33;;;;;;;10.38;3.65;;;14.40;99.90;;;;;;5029401;28;20119;-83
2022/10/09 11:48:34;;;;;;;8.25;3.60;;;14.40;99.90;;;;;;5017541;28;20038;-76
2022/10/09 11:51:25;;;;;;;9.13;3.42;;;14.50;99.90;;;;;;5024495;28;20050;-78
2022/10/09 11:53:52;;;;;;;11.30;3.65;;;14.50;99.90;;;;;;5015808;28;20514;-80
2022/10/09 11:56:21;;;;;;;9.95;3.13;;;14.60;99.90;;;;;;5027220;28;20041;-82
2022/10/09 11:59:02;;;;;;;9.25;3.10;;;14.60;99.90;;;;;;5025331;28;20045;-77
2022/10/09 12:01:31;;;;;;;9.27;3.30;;;14.70;99.90;;;;;;5024045;28;20488;-79
2022/10/09 12:04:20;;;;;;;12.90;3.80;;;14.80;99.90;;;;;;5027312;28;20045;-78
2022/10/09 12:06:56;;;;;;;9.43;3.58;;;14.80;99.90;;;;;;5028371;28;20077;-78
2022/10/09 12:09:27;;;;;;;8.13;3.15;;;14.90;99.90;;;;;;5025915;28;20053;-82
2022/10/09 12:12:22;;;;;;;9.32;3.30;;;14.90;99.90;;;;;;5010627;28;20396;-82
2022/10/09 12:14:50;;;;;;;9.10;3.50;;;14.90;99.90;;;;;;5008731;28;20539;-82
2022/10/09 12:17:15;;;;;;;9.48;3.25;;;15.00;99.90;;;;;;5028776;28;20125;-81
2022/10/09 12:19:42;;;;;;;10.55;3.00;;;15.00;99.90;;;;;;5026732;28;20503;-78
2022/10/09 12:22:18;;;;;;;12.57;3.47;;;15.00;99.90;;;;;;5025113;28;20042;-80
2022/10/09 12:24:50;;;;;;;9.20;3.28;;;15.10;99.90;;;;;;5006243;28;20049;-80
2022/10/09 12:27:37;;;;;;;8.70;3.30;;;15.00;99.90;;;;;;5024280;28;20088;-79
2022/10/09 12:30:19;;;;;;;8.90;3.58;;;15.10;99.90;;;;;;5025963;28;20041;-79
2022/10/09 12:32:51;;;;;;;8.93;3.42;;;15.10;99.90;;;;;;5015154;28;20529;-78
2022/10/09 12:35:36;;;;;;;10.63;3.42;;;15.20;99.90;;;;;;5028311;28;20046;-78
2022/10/09 12:38:14;;;;;;;7.30;2.85;;;15.20;99.90;;;;;;5016755;28;20045;-78
2022/10/09 12:40:45;;;;;;;8.23;2.90;;;15.30;99.90;;;;;;5028169;28;20042;-78
2022/10/09 12:43:17;;;;;;;9.23;3.13;;;15.20;99.90;;;;;;5023165;28;20045;-79
2022/10/09 12:45:45;;;;;;;9.10;3.00;;;15.30;99.90;;;;;;5022830;28;20060;-78
2022/10/09 12:48:13;;;;;;;8.80;2.65;;;15.40;99.90;;;;;;5027402;28;20045;-79
2022/10/09 12:50:39;;;;;;;8.70;2.70;;;15.40;99.90;;;;;;5014225;28;20073;-80
2022/10/09 12:53:27;;;;;;;7.88;2.60;;;15.40;99.90;;;;;;5004180;28;20042;-78
2022/10/09 12:55:58;;;;;;;7.88;2.80;;;15.50;99.90;;;;;;5001049;28;20117;-79
2022/10/09 12:58:26;;;;;;;8.93;2.85;;;15.50;99.90;;;;;;5007074;28;20483;-78
2022/10/09 13:01:00;;;;;;;9.35;3.25;;;15.60;99.90;;;;;;5008221;28;20053;-80
2022/10/09 13:03:35;;;;;;;6.63;2.40;;;15.60;99.90;;;;;;4990618;28;20053;-81
2022/10/09 13:06:19;;;;;;;9.63;3.00;;;15.60;99.90;;;;;;5009646;28;20077;-77